createdAt,value
2019-04-26T00:01:21.222Z,1.68
2019-04-26T00:06:30.159Z,1.32
2019-04-26T00:11:39.102Z,1.98
2019-04-26T00:16:48.032Z,1.35
2019-04-26T00:21:56.974Z,1.60
2019-04-26T00:27:05.898Z,2.86
2019-04-26T00:32:15.069Z,1.37
2019-04-26T00:37:23.780Z,2.35
2019-04-26T00:42:32.735Z,1.78
2019-04-26T00:47:41.683Z,2.24
2019-04-26T00:52:50.769Z,1.37
2019-04-26T00:57:59.650Z,2.18
2019-04-26T01:03:09.025Z,2.97
2019-04-26T01:08:17.942Z,2.99
2019-04-26T01:13:26.948Z,2.40
2019-04-26T01:18:35.881Z,3.60
2019-04-26T01:23:44.844Z,2.41
2019-04-26T01:28:53.779Z,3.71
2019-04-26T01:34:02.768Z,3.58
2019-04-26T01:39:11.719Z,2.87
2019-04-26T01:44:21.765Z,3.49
2019-04-26T01:49:29.206Z,3.06
2019-04-26T01:54:38.406Z,2.91
2019-04-26T01:59:47.467Z,3.12
2019-04-26T02:04:56.402Z,2.60
2019-04-26T02:10:05.438Z,2.94
2019-04-26T02:15:14.354Z,4.51
2019-04-26T02:20:24.281Z,2.53
2019-04-26T02:25:32.185Z,3.15
2019-04-26T02:30:40.271Z,3.59
2019-04-26T02:35:49.211Z,3.37
2019-04-26T02:40:58.175Z,3.21
2019-04-26T02:46:07.097Z,3.32
2019-04-26T02:51:16.246Z,4.17
2019-04-26T02:56:25.175Z,5.32
2019-04-26T03:01:36.279Z,4.48
2019-04-26T03:06:42.882Z,3.59
2019-04-26T03:11:51.133Z,3.79
2019-04-26T03:17:00.054Z,4.63
2019-04-26T03:22:08.998Z,4.22
2019-04-26T03:27:17.940Z,3.19
2019-04-26T03:32:26.881Z,2.81
2019-04-26T03:37:36.597Z,3.96
2019-04-26T03:42:44.465Z,4.29
2019-04-26T03:47:53.503Z,4.69
2019-04-26T03:53:02.457Z,4.82
2019-04-26T03:58:11.471Z,4.00
2019-04-26T04:03:20.382Z,4.51
2019-04-26T04:08:29.319Z,4.96
2019-04-26T04:13:40.534Z,4.32
2019-04-26T04:18:47.607Z,9.17
2019-04-26T04:23:55.143Z,3.25
2019-04-26T04:29:04.094Z,5.72
2019-04-26T04:39:20.648Z,3.18
2019-04-26T04:44:29.583Z,5.12
2019-04-26T04:49:38.583Z,4.88
2019-04-26T04:55:01.667Z,3.08
2019-04-26T04:59:55.983Z,6.01
2019-04-26T05:05:04.921Z,5.22
2019-04-26T05:10:13.934Z,5.15
2019-04-26T05:15:22.874Z,3.96
2019-04-26T05:20:31.822Z,4.31
2019-04-26T05:25:40.750Z,4.68
2019-04-26T05:30:49.916Z,4.52
2019-04-26T05:35:58.653Z,4.17
2019-04-26T05:41:07.654Z,3.72
2019-04-26T05:46:16.585Z,3.63
2019-04-26T05:51:25.543Z,3.89
2019-04-26T05:56:34.491Z,4.43
2019-04-26T06:01:43.428Z,4.30
2019-04-26T06:06:53.133Z,4.85
2019-04-26T06:12:00.982Z,5.48
2019-04-26T06:17:09.824Z,7.26
2019-04-26T06:22:18.786Z,4.10
2019-04-26T06:27:27.717Z,5.14
2019-04-26T06:32:36.747Z,6.77
2019-04-26T06:37:45.642Z,4.31
2019-04-26T06:42:54.873Z,5.96
2019-04-26T06:48:03.958Z,6.05
2019-04-26T06:53:11.646Z,6.13
2019-04-26T06:58:20.575Z,4.92
2019-04-26T07:03:29.832Z,5.29
2019-04-26T07:08:38.780Z,5.48
2019-04-26T07:13:47.730Z,6.20
2019-04-26T07:18:56.670Z,5.49
2019-04-26T07:24:05.738Z,8.19
2019-04-26T07:29:14.662Z,7.10
2019-04-26T07:34:23.959Z,5.10
2019-04-26T07:39:33.271Z,7.13
2019-04-26T07:44:42.194Z,7.09
2019-04-26T07:49:51.218Z,6.70
2019-04-26T07:55:00.147Z,6.19
2019-04-26T08:00:09.159Z,6.76
2019-04-26T08:05:18.093Z,6.10
2019-04-26T08:10:27.031Z,5.66
2019-04-26T08:15:36.025Z,4.89
2019-04-26T08:20:45.039Z,7.38
2019-04-26T08:25:53.964Z,5.21
2019-04-26T08:31:04.737Z,4.52
2019-04-26T08:36:12.598Z,5.73
2019-04-26T08:41:20.005Z,6.48
2019-04-26T08:46:28.439Z,5.78
2019-04-26T08:51:37.362Z,6.34
2019-04-26T08:56:51.672Z,6.40
2019-04-26T09:01:50.681Z,7.33
2019-04-26T09:06:59.602Z,10.43
2019-04-26T09:12:09.818Z,8.39
2019-04-26T09:17:17.006Z,9.72
2019-04-26T09:22:26.473Z,9.10
2019-04-26T09:27:34.671Z,5.81
2019-04-26T09:32:43.626Z,5.42
2019-04-26T09:37:52.618Z,5.75
2019-04-26T09:43:02.742Z,5.48
2019-04-26T09:48:29.759Z,5.23
2019-04-26T09:53:18.682Z,7.18
2019-04-26T09:58:30.845Z,9.53
2019-04-26T10:03:36.110Z,6.31
2019-04-26T10:08:47.003Z,6.40
2019-04-26T10:13:53.526Z,5.18
2019-04-26T10:19:03.571Z,4.66
2019-04-26T10:24:02.539Z,5.87
2019-04-26T10:29:11.462Z,5.67
2019-04-26T10:34:20.438Z,6.38
2019-04-26T10:39:32.499Z,4.60
2019-04-26T10:44:39.936Z,5.55
2019-04-26T10:49:46.371Z,4.40
2019-04-26T10:54:55.382Z,4.51
2019-04-26T11:00:04.299Z,4.58
2019-04-26T11:05:18.341Z,3.18
2019-04-26T11:15:23.343Z,3.01
2019-04-26T11:20:32.271Z,2.38
2019-04-26T11:25:41.280Z,5.00
2019-04-26T11:30:52.056Z,4.75
2019-04-26T11:35:58.894Z,3.93
2019-04-26T11:41:07.974Z,3.64
2019-04-26T11:46:16.906Z,4.06
2019-04-26T11:51:27.483Z,3.22
2019-04-26T11:56:37.442Z,2.80
2019-04-26T12:01:42.854Z,2.90
2019-04-26T12:06:51.870Z,4.81
2019-04-26T12:12:04.712Z,4.60
2019-04-26T12:17:09.388Z,3.67
2019-04-26T12:22:18.387Z,4.82
2019-04-26T12:27:30.603Z,5.11
2019-04-26T12:32:35.827Z,4.02
2019-04-26T12:37:44.752Z,4.03
2019-04-26T12:42:53.707Z,4.53
2019-04-26T12:48:02.662Z,4.38
2019-04-26T12:53:11.599Z,4.47
2019-04-26T12:58:20.535Z,2.72
2019-04-26T13:03:30.408Z,8.08
2019-04-26T13:08:36.573Z,3.45
2019-04-26T13:13:45.553Z,5.37
2019-04-26T13:18:54.530Z,4.50
2019-04-26T13:24:04.475Z,5.37
2019-04-26T13:29:12.090Z,3.10
2019-04-26T13:34:21.023Z,3.91
2019-04-26T13:39:30.123Z,2.88
2019-04-26T13:44:39.424Z,2.67
2019-04-26T13:49:48.205Z,3.32
2019-04-26T13:54:56.504Z,6.94
2019-04-26T14:05:42.366Z,5.21
2019-04-26T14:46:10.505Z,3.93
2019-04-26T15:02:06.144Z,5.18
2019-04-26T15:06:38.804Z,2.99
2019-04-26T15:21:35.693Z,3.08
2019-04-26T15:52:23.844Z,3.81
2019-04-26T15:59:12.866Z,4.42
2019-04-26T16:12:49.803Z,4.32
2019-04-26T16:17:58.979Z,1.95
2019-04-26T16:23:13.300Z,1.97
2019-04-26T16:28:09.746Z,2.81
2019-04-26T16:33:23.076Z,1.76
2019-04-26T16:38:20.070Z,3.45
2019-04-26T16:43:37.599Z,2.17
2019-04-26T16:48:37.441Z,2.29
2019-04-26T16:54:05.342Z,2.48
2019-04-26T16:58:55.117Z,3.98
2019-04-26T17:04:06.078Z,2.51
2019-04-26T17:09:14.271Z,2.73
2019-04-26T17:14:22.437Z,3.41
2019-04-26T17:19:29.607Z,2.63
2019-04-26T17:24:38.095Z,3.12
2019-04-26T17:29:46.202Z,2.11
2019-04-26T17:34:55.140Z,5.15
2019-04-26T17:40:04.087Z,1.98
2019-04-26T17:45:13.049Z,2.92
2019-04-26T17:50:22.005Z,2.15
2019-04-26T17:55:33.355Z,2.96
2019-04-26T18:00:46.042Z,1.60
2019-04-26T18:05:56.755Z,2.99
2019-04-26T18:10:56.372Z,2.96
2019-04-26T18:16:05.322Z,1.93
2019-04-26T18:21:19.188Z,1.79
2019-04-26T18:26:24.142Z,2.46
2019-04-26T18:31:33.464Z,2.35
2019-04-26T18:36:39.747Z,2.49
2019-04-26T18:41:48.689Z,3.68
2019-04-26T18:46:57.696Z,3.60
2019-04-26T18:52:08.896Z,2.92
2019-04-26T18:57:17.141Z,0.83
2019-04-26T19:02:27.609Z,2.89
2019-04-26T19:07:31.805Z,4.49
2019-04-26T19:12:33.839Z,2.81
2019-04-26T19:17:43.517Z,2.69
2019-04-26T19:22:53.241Z,2.54
2019-04-26T19:28:04.430Z,4.45
2019-04-26T19:33:11.600Z,1.69
2019-04-26T19:38:16.765Z,3.26
2019-04-26T19:43:32.452Z,3.16
2019-04-26T19:48:34.256Z,3.90
2019-04-26T19:53:43.207Z,2.43
2019-04-26T19:58:57.576Z,2.46
2019-04-26T20:04:02.030Z,1.70
2019-04-26T20:09:09.108Z,2.24
2019-04-26T20:14:19.203Z,2.05
2019-04-26T20:19:35.130Z,2.96
2019-04-26T20:24:35.006Z,2.12
2019-04-26T20:29:47.471Z,1.40
2019-04-26T20:34:52.434Z,1.98
2019-04-26T20:40:16.232Z,2.44
2019-04-26T20:45:11.840Z,1.50
2019-04-26T20:50:18.319Z,2.12
2019-04-26T20:55:30.407Z,2.96
2019-04-26T21:00:37.645Z,1.63
2019-04-26T21:05:46.429Z,2.78
2019-04-26T21:10:55.972Z,2.74
2019-04-26T21:16:03.594Z,3.68
2019-04-26T21:21:10.512Z,2.77
2019-04-26T21:26:18.320Z,3.86
2019-04-26T21:31:27.261Z,3.68
2019-04-26T21:36:40.904Z,3.51
2019-04-26T21:41:48.253Z,3.72
2019-04-26T21:46:56.152Z,3.81
2019-04-26T21:52:01.669Z,1.78
2019-04-26T21:57:10.739Z,2.51
2019-04-26T22:02:19.736Z,2.22
2019-04-26T22:07:28.694Z,1.40
2019-04-26T22:12:37.639Z,2.26
2019-04-26T22:17:46.579Z,4.88
2019-04-26T22:22:55.531Z,2.90
2019-04-26T22:28:04.458Z,3.00
2019-04-26T22:33:13.430Z,1.69
2019-04-26T22:38:26.584Z,3.06
2019-04-26T22:43:30.898Z,3.44
2019-04-26T22:48:39.902Z,4.37
2019-04-26T22:53:48.890Z,3.04
2019-04-26T22:58:58.492Z,4.33
2019-04-26T23:04:06.338Z,3.65
2019-04-26T23:09:17.473Z,5.82
2019-04-26T23:14:23.875Z,3.71
2019-04-26T23:19:33.412Z,4.59
2019-04-26T23:24:42.775Z,2.70
2019-04-26T23:29:53.944Z,4.16
2019-04-26T23:35:02.117Z,3.38
2019-04-26T23:40:06.726Z,3.83
2019-04-26T23:45:15.675Z,4.53
2019-04-26T23:50:25.652Z,3.91
2019-04-26T23:55:33.790Z,3.37
